< < Back
Terminal Aerodrome Forecast


Current Version              Previous Versions:   1  2  3  4  5  6  7  8  9  

Terminal Aerodrome Forecast

515
FTUS42 KCAE 281800 AAB
TAFCAE
TAF AMD
KCAE 281821Z 2818/0118 06010KT P6SM BKN100
     FM010000 06008KT P6SM VCSH BKN040
     FM010600 04005KT 5SM -RA OVC015
     FM011200 03005KT 4SM -RA BR OVC006=

Latest METAR

751
SAUS80 KWBC 282300 CCA
MTRCAE
METAR KCAE 282256Z 08011KT 10SM BKN120 10/M03 A3058 RMK AO2 SLP356
T01001033


USA.gov is the U.S. government's official web portal to all federal, state and local government web resources and services.